M I D A S
Marine Information and Data Acquisition System
Tripno 972 of the Zeeleeuw from 2005-10-17 06:25:46 to 2005-10-17 15:25:52
Back to CruiseResearch ActivitiesStationsMapUnderway DataData graphs

EquipmentUnitsComment
TimeDGPSUTC
LatitudeDGPSDM.mWGS84
LongitudeDGPSDM.mWGS84
HeadingGyrodeg 
SOGDGPSknotsSpeed over ground
COGDGPSdegCourse over ground
DepthEcho soundermeters200 kHz
Missing or incorrect values are displayed as -999
Navigation data collected by the RV Zeeleeuw from 2005-10-17 06:28:52 to 2005-10-17 15:35:43
Time Latitude Longitude Heading SOG COG Depth
2005-10-17 06:29:58 51°13.62 2°56.034 115.5 3.4 293 -999
2005-10-17 06:30:58 51°13.645 2°55.943 123.9 4.1 298 -999
2005-10-17 06:31:58 51°13.679 2°55.848 119 4.2 297 -999
2005-10-17 06:32:58 51°13.697 2°55.746 97.2 3.3 279 -999
2005-10-17 06:33:58 51°13.716 2°55.753 28.6 2.5 14 12
2005-10-17 06:34:58 51°13.769 2°55.712 317.9 4.8 313 7.1
2005-10-17 06:35:58 51°13.863 2°55.601 335.6 8.4 332 8.4
2005-10-17 06:36:57 51°13.998 2°55.506 342.1 9.3 337 9
2005-10-17 06:37:58 51°14.148 2°55.396 337.7 10.3 332 -999
2005-10-17 06:38:58 51°14.282 2°55.217 315.7 10.8 310 9.1
2005-10-17 06:39:57 51°14.393 2°54.988 312.7 11.4 307 9.1
2005-10-17 06:40:56 51°14.53 2°54.764 333.8 12.5 324 8.6
2005-10-17 06:41:56 51°14.713 2°54.614 346.8 12.4 338 8.1
2005-10-17 06:42:58 51°14.915 2°54.52 351.6 12.2 341 5.6
2005-10-17 06:43:58 51°15.103 2°54.414 355.8 11.7 348 6.9
2005-10-17 06:44:58 51°15.294 2°54.34 352.4 12.1 340 7.3
2005-10-17 06:45:56 51°15.478 2°54.229 356.6 12.2 348 8.1
2005-10-17 06:46:56 51°15.679 2°54.177 1.8 12.3 351 9
2005-10-17 06:47:56 51°15.878 2°54.147 9.9 11.5 3 9.7
2005-10-17 06:48:56 51°16.018 2°54.203 25.8 7.7 15 10.1
2005-10-17 06:49:56 51°16.139 2°54.228 16.3 6.8 4 10.1
2005-10-17 06:50:57 51°16.215 2°54.265 47.1 3.3 37 10.3
2005-10-17 06:51:56 51°16.231 2°54.281 41.5 0.6 359 10.3
2005-10-17 06:52:58 51°16.239 2°54.273 40.8 0.5 303 10.3
2005-10-17 06:53:58 51°16.24 2°54.256 44.8 0.8 270 10.3
2005-10-17 06:54:56 51°16.236 2°54.234 44.3 1 255 10.4
2005-10-17 06:55:56 51°16.229 2°54.206 46.2 1.2 246 10.5
2005-10-17 06:56:56 51°16.221 2°54.175 46.4 1.3 239 10.4
2005-10-17 06:57:56 51°16.21 2°54.14 46.2 1.5 242 10.5
2005-10-17 06:58:58 51°16.197 2°54.103 46.6 1.6 242 10.5
2005-10-17 06:59:56 51°16.185 2°54.065 46.3 1.7 242 10.6
2005-10-17 07:00:58 51°16.171 2°54.024 45.1 1.6 247 10.5
2005-10-17 07:01:58 51°16.163 2°53.992 45.7 1.1 251 10.5
2005-10-17 07:02:58 51°16.16 2°53.97 51.6 0.7 262 10.6
2005-10-17 07:03:56 51°16.157 2°53.956 53.7 0.5 263 10.5
2005-10-17 07:04:56 51°16.154 2°53.938 54.7 0.9 252 10.6
2005-10-17 07:05:58 51°16.147 2°53.912 55.9 1.1 242 10.6
2005-10-17 07:06:56 51°16.137 2°53.882 57.3 1.5 243 10.4
2005-10-17 07:07:56 51°16.124 2°53.849 60 1.5 237 10.6
2005-10-17 07:08:56 51°16.11 2°53.812 60.1 1.6 242 10.5
2005-10-17 07:09:58 51°16.125 2°53.793 12.6 2.8 332 10.7
2005-10-17 07:10:56 51°16.146 2°53.677 279.5 6.5 263 10.8
2005-10-17 07:11:58 51°16.152 2°53.394 282.5 12.4 271 11
2005-10-17 07:12:58 51°16.153 2°53.034 279.5 13.7 272 11.1
2005-10-17 07:13:56 51°16.165 2°52.683 280.6 13.7 272 11.2
2005-10-17 07:14:58 51°16.184 2°52.307 282.8 13.7 274 11.5
2005-10-17 07:15:56 51°16.203 2°51.958 283.4 13.6 275 11.6
2005-10-17 07:16:56 51°16.221 2°51.598 283.1 13.6 275 11.4
2005-10-17 07:17:56 51°16.242 2°51.242 287.7 13.3 279 10.1
2005-10-17 07:18:58 51°16.287 2°50.884 291.1 13.3 284 10.2
2005-10-17 07:19:58 51°16.354 2°50.552 300.8 13.1 291 8.6
2005-10-17 07:20:56 51°16.46 2°50.268 311.4 13.3 300 9.9
2005-10-17 07:21:56 51°16.556 2°49.953 305.6 13.1 295 10.9
2005-10-17 07:22:56 51°16.64 2°49.765 344.5 5.3 331 13.7
2005-10-17 07:23:56 51°16.686 2°49.765 47.7 1.9 45 13.1
2005-10-17 07:24:58 51°16.683 2°49.812 100 2 126 13.4
2005-10-17 07:25:58 51°16.664 2°49.817 126 1.2 209 13.7
2005-10-17 07:26:56 51°16.644 2°49.802 143.1 1.4 206 14.1
2005-10-17 07:27:58 51°16.651 2°49.757 167.7 2.5 310 -999
2005-10-17 07:28:58 51°16.65 2°49.716 199.1 2.7 216 13.7
2005-10-17 07:29:56 51°16.551 2°49.614 213.4 11.5 211 13.7
2005-10-17 07:30:58 51°16.37 2°49.374 224.5 14.1 222 13.1
2005-10-17 07:31:58 51°16.192 2°49.125 223.5 14.1 221 12.5
2005-10-17 07:32:58 51°16.011 2°48.878 223 14.1 223 12.1
2005-10-17 07:33:56 51°15.839 2°48.637 222.8 14.1 221 11.3
2005-10-17 07:34:58 51°15.656 2°48.382 222.5 14.2 225 10.4
2005-10-17 07:35:58 51°15.48 2°48.136 221.9 14 219 9.7
2005-10-17 07:36:58 51°15.302 2°47.9 221.6 13.9 219 9.2
2005-10-17 07:37:58 51°15.124 2°47.665 219.9 14.1 221 9.3
2005-10-17 07:38:58 51°14.946 2°47.425 221.3 14.1 221 11.3
2005-10-17 07:39:58 51°14.77 2°47.176 223.7 14.1 222 12.4
2005-10-17 07:40:56 51°14.6 2°46.934 221.8 14.2 222 12.3
2005-10-17 07:41:58 51°14.416 2°46.677 221.8 14.2 221 11.5
2005-10-17 07:42:58 51°14.238 2°46.431 222.6 14.1 221 10.4
2005-10-17 07:43:56 51°14.066 2°46.197 221.3 14.2 221 9.3
2005-10-17 07:44:58 51°13.882 2°45.951 220.1 13.9 218 8.6
2005-10-17 07:45:58 51°13.705 2°45.717 221.7 14 221 8.1
2005-10-17 07:46:58 51°13.522 2°45.484 221 14.4 221 9.6
2005-10-17 07:47:58 51°13.341 2°45.246 221.3 14.1 219 11
2005-10-17 07:48:58 51°13.162 2°45.008 222.2 13.8 219 11.5
2005-10-17 07:49:56 51°12.99 2°44.773 221.5 14.2 220 11.6
2005-10-17 07:50:56 51°12.814 2°44.522 224.1 14.4 223 11.6
2005-10-17 07:51:56 51°12.64 2°44.266 222.8 14.1 224 11.5
2005-10-17 07:52:56 51°12.467 2°44.014 223.9 14.1 223 10.3
2005-10-17 07:53:58 51°12.289 2°43.753 224.6 14.1 224 10.2
2005-10-17 07:54:58 51°12.119 2°43.502 224.1 13.8 221 9.7
2005-10-17 07:55:58 51°11.949 2°43.253 227.2 13.7 222 8.1
2005-10-17 07:56:56 51°11.783 2°43.022 221.7 14 221 8.4
2005-10-17 07:57:58 51°11.619 2°42.745 232.2 14 229 9.6
2005-10-17 07:58:58 51°11.463 2°42.469 230.4 14 229 10.5
2005-10-17 07:59:58 51°11.318 2°42.21 228 11.1 225 11.3
2005-10-17 08:00:56 51°11.199 2°42.131 175.3 6 178 11.5
2005-10-17 08:01:58 51°11.137 2°42.15 143.3 1.9 181 11.8
2005-10-17 08:02:58 51°11.12 2°42.125 128.4 1.4 231 11.9
2005-10-17 08:03:56 51°11.109 2°42.095 121.3 1.4 245 11.9
2005-10-17 08:04:58 51°11.1 2°42.057 113.9 1.5 253 11.9
2005-10-17 08:05:56 51°11.094 2°42.017 103 1.7 261 11.9
2005-10-17 08:06:58 51°11.088 2°41.968 87.6 1.9 257 11.9
2005-10-17 08:07:58 51°11.081 2°41.917 74.9 1.9 258 12
2005-10-17 08:08:58 51°11.088 2°41.905 53.4 1.7 29 11.9
2005-10-17 08:09:56 51°11.143 2°41.853 315.1 5.6 295 11.7
2005-10-17 08:10:58 51°11.107 2°41.677 242.2 9.3 242 11.7
2005-10-17 08:11:58 51°11.014 2°41.379 247.9 13.8 244 11.8
2005-10-17 08:12:56 51°10.922 2°41.052 249.5 14.1 247 12.1
2005-10-17 08:13:58 51°10.836 2°40.692 252.5 14.2 249 12.4
2005-10-17 08:14:56 51°10.755 2°40.353 252 14.2 249 13
2005-10-17 08:15:58 51°10.669 2°39.991 252.8 14.2 250 13.6
2005-10-17 08:16:58 51°10.585 2°39.641 252.4 14.3 250 14.3
2005-10-17 08:17:58 51°10.5 2°39.29 251.9 14.2 247 15
2005-10-17 08:18:58 51°10.423 2°38.932 256.5 14.3 253 15.4
2005-10-17 08:19:58 51°10.351 2°38.57 256.6 14.4 253 15.6
2005-10-17 08:20:58 51°10.279 2°38.205 256.9 14.4 252 16.2
2005-10-17 08:21:58 51°10.218 2°37.836 260.6 14.4 255 16.8
2005-10-17 08:22:58 51°10.16 2°37.467 260.5 14.4 256 17.5
2005-10-17 08:23:58 51°10.103 2°37.103 261.1 14.1 255 17.8
2005-10-17 08:24:58 51°10.053 2°36.739 264.4 14 260 17.6
2005-10-17 08:25:58 51°10.019 2°36.372 267 14.1 262 17.7
2005-10-17 08:26:58 51°10.027 2°36.006 288 13.7 283 17.3
2005-10-17 08:27:58 51°10.138 2°35.712 325.8 12.7 323 11.5
2005-10-17 08:28:58 51°10.33 2°35.64 9.2 12 3 10.8
2005-10-17 08:29:58 51°10.509 2°35.758 38.6 11.7 34 10.5
2005-10-17 08:30:56 51°10.662 2°35.932 40.6 11.6 35 10.5
2005-10-17 08:31:58 51°10.829 2°36.109 37 11.7 31 11
2005-10-17 08:32:58 51°10.998 2°36.262 36 11.7 30 11.2
2005-10-17 08:33:58 51°11.169 2°36.412 34.7 11.7 29 11.4
2005-10-17 08:34:58 51°11.337 2°36.563 35.1 11.6 29 11.6
2005-10-17 08:35:58 51°11.508 2°36.715 35.2 11.8 29 11.6
2005-10-17 08:36:58 51°11.679 2°36.867 34.7 11.6 29 11.4
2005-10-17 08:37:58 51°11.848 2°37.016 35.5 11.6 29 11.4
2005-10-17 08:38:58 51°12.018 2°37.165 35.5 11.7 29 11.4
2005-10-17 08:39:56 51°12.182 2°37.31 35.6 11.7 29 11.2
2005-10-17 08:40:58 51°12.357 2°37.465 36.1 11.6 31 11.5
2005-10-17 08:41:56 51°12.516 2°37.624 37.8 11.7 32 11.9
2005-10-17 08:42:58 51°12.687 2°37.794 38.5 11.7 32 12.6
2005-10-17 08:43:58 51°12.852 2°37.955 38.4 11.6 31 13
2005-10-17 08:44:58 51°13.017 2°38.118 38.5 11.8 33 13.6
2005-10-17 08:45:58 51°13.184 2°38.287 37.4 12 31 13.9
2005-10-17 08:46:56 51°13.349 2°38.447 37.4 11.9 30 14.3
2005-10-17 08:47:58 51°13.529 2°38.602 34.2 11.9 26 14.4
2005-10-17 08:48:58 51°13.712 2°38.724 26.1 12.1 19 14
2005-10-17 08:49:58 51°13.909 2°38.801 18.1 12.2 10 13
2005-10-17 08:50:58 51°14.11 2°38.82 8.6 12.1 -999 11.7
2005-10-17 08:51:58 51°14.301 2°38.722 340 12.5 329 16.1
2005-10-17 08:52:58 51°14.479 2°38.545 338.4 12.7 328 17.7
2005-10-17 08:53:58 51°14.656 2°38.369 339.5 12.5 328 16.5
2005-10-17 08:54:58 51°14.832 2°38.194 339.4 12.4 328 15.8
2005-10-17 08:55:58 51°15.009 2°38.025 340.9 12.4 329 12.8
2005-10-17 08:56:58 51°15.188 2°37.862 341.3 12.4 330 11.1
2005-10-17 08:57:58 51°15.37 2°37.697 340.2 12.7 330 9.9
2005-10-17 08:58:58 51°15.555 2°37.533 341.1 12.8 331 11.7
2005-10-17 08:59:58 51°15.742 2°37.376 341.6 12.5 332 11.1
2005-10-17 09:00:58 51°15.929 2°37.221 340.4 12.6 332 12.3
2005-10-17 09:01:58 51°16.116 2°37.06 339.7 12.6 330 20.9
2005-10-17 09:02:58 51°16.303 2°36.906 346.2 12.4 335 27.1
2005-10-17 09:03:58 51°16.408 2°36.846 13.4 4.5 354 27
2005-10-17 09:04:58 51°16.466 2°36.803 343.3 4.2 317 27
2005-10-17 09:05:58 51°16.518 2°36.754 13.4 3.1 345 27
2005-10-17 09:06:58 51°16.565 2°36.746 27.5 1.5 345 27
2005-10-17 09:07:58 51°16.571 2°36.732 58.7 0.6 286 26.9
2005-10-17 09:08:58 51°16.569 2°36.714 65.5 0.8 264 27
2005-10-17 09:09:58 51°16.564 2°36.689 69.3 1 250 27.2
2005-10-17 09:10:58 51°16.558 2°36.66 69.8 1.2 251 27.2
2005-10-17 09:11:58 51°16.552 2°36.629 67.2 1.3 253 27.2
2005-10-17 09:12:58 51°16.546 2°36.597 65.4 1.3 252 27.1
2005-10-17 09:13:58 51°16.54 2°36.564 63.3 1.3 253 27.3
2005-10-17 09:14:58 51°16.533 2°36.53 60.1 1.3 252 27.4
2005-10-17 09:15:58 51°16.527 2°36.495 55.2 1.3 252 27.4
2005-10-17 09:16:58 51°16.525 2°36.467 43.4 0.9 322 27.7
2005-10-17 09:17:58 51°16.586 2°36.428 354.5 6.6 338 27.6
2005-10-17 09:18:58 51°16.755 2°36.333 352.4 12.3 341 27.1
2005-10-17 09:19:58 51°16.943 2°36.185 340.9 12.7 327 27.4
2005-10-17 09:20:58 51°17.112 2°35.982 330.9 12.7 321 22.5
2005-10-17 09:21:58 51°17.266 2°35.751 325.4 12.7 316 15.6
2005-10-17 09:22:58 51°17.411 2°35.509 322.2 12.6 313 12.3
2005-10-17 09:23:58 51°17.555 2°35.268 322.7 12.8 315 14.2
2005-10-17 09:24:58 51°17.698 2°35.017 320.2 12.9 313 17.9
2005-10-17 09:25:58 51°17.833 2°34.75 314.7 13 307 20.8
2005-10-17 09:26:58 51°17.966 2°34.475 315 13.1 307 28
2005-10-17 09:27:58 51°18.099 2°34.198 316.4 13.2 308 27.3
2005-10-17 09:28:58 51°18.23 2°33.919 313.6 13 305 24.3
2005-10-17 09:29:58 51°18.358 2°33.64 313.8 13 305 20.5
2005-10-17 09:30:58 51°18.486 2°33.364 314.9 12.9 308 19.7
2005-10-17 09:31:58 51°18.614 2°33.087 313 13 306 25.8
2005-10-17 09:32:58 51°18.738 2°32.802 313.4 13.1 305 29.2
2005-10-17 09:33:58 51°18.859 2°32.514 312.9 12.9 304 26.9
2005-10-17 09:34:58 51°18.982 2°32.226 313 13.1 304 31.8
2005-10-17 09:35:58 51°19.104 2°31.937 312.8 13.2 303 31.2
2005-10-17 09:36:58 51°19.225 2°31.644 313.3 13.3 303 31.6
2005-10-17 09:37:58 51°19.346 2°31.352 314.2 13.1 304 31.3
2005-10-17 09:38:58 51°19.469 2°31.065 315.1 13.1 306 30.5
2005-10-17 09:39:58 51°19.593 2°30.784 312.5 13 305 23.7
2005-10-17 09:40:58 51°19.727 2°30.521 318.3 12.7 310 16.5
2005-10-17 09:41:58 51°19.872 2°30.291 319.1 12 312 15.3
2005-10-17 09:42:58 51°19.953 2°30.144 319.3 5.7 314 15.2
2005-10-17 09:43:58 51°20 2°30.064 327.8 3.3 326 14.6
2005-10-17 09:44:58 51°20.021 2°30.048 349.1 0.4 334 13.4
2005-10-17 09:45:58 51°20.023 2°30.051 5.9 0.1 65 13.9
2005-10-17 09:46:58 51°20.022 2°30.056 17.9 0.2 115 14.1
2005-10-17 09:47:58 51°20.019 2°30.06 23 0.2 191 14.4
2005-10-17 09:48:58 51°20.014 2°30.063 21.7 0.5 139 14.8
2005-10-17 09:49:58 51°20.039 2°30.096 42 3.4 42 15
2005-10-17 09:50:58 51°20.095 2°30.275 65.2 10.7 63 14.1
2005-10-17 09:51:58 51°20.173 2°30.595 73.3 13.3 72 15.4
2005-10-17 09:52:58 51°20.232 2°30.939 76 13.2 75 18.4
2005-10-17 09:53:58 51°20.291 2°31.278 75.3 13.1 74 22
2005-10-17 09:54:58 51°20.349 2°31.612 75.3 13.1 73 26.2
2005-10-17 09:55:58 51°20.408 2°31.944 75.7 13 74 31.2
2005-10-17 09:56:58 51°20.467 2°32.274 75.3 13 74 32
2005-10-17 09:57:58 51°20.527 2°32.606 75.3 13 73 31.8
2005-10-17 09:58:58 51°20.589 2°32.935 75.3 13.1 73 31.9
2005-10-17 09:59:58 51°20.651 2°33.263 75.6 13 75 32.7
2005-10-17 10:00:58 51°20.716 2°33.591 75.2 13.1 74 32.6
2005-10-17 10:01:58 51°20.78 2°33.925 75.6 13.1 73 32.6
2005-10-17 10:02:58 51°20.845 2°34.26 75.6 13.3 73 32.7
2005-10-17 10:03:58 51°20.91 2°34.593 74.9 13.1 73 33.6
2005-10-17 10:04:58 51°20.976 2°34.927 74.7 13.1 72 33.2
2005-10-17 10:05:58 51°21.093 2°35.214 54.5 12.9 53 32.2
2005-10-17 10:06:58 51°21.212 2°35.503 60.2 13.1 57 36.2
2005-10-17 10:07:58 51°21.329 2°35.795 60.2 13 58 33.8
2005-10-17 10:08:58 51°21.445 2°36.089 60.2 13.2 58 33.4
2005-10-17 10:09:58 51°21.563 2°36.385 60.4 13.2 57 32.8
2005-10-17 10:10:58 51°21.68 2°36.683 60.6 13.3 57 32.9
2005-10-17 10:11:58 51°21.797 2°36.981 60.8 13.1 58 33.7
2005-10-17 10:12:58 51°21.914 2°37.28 60.2 13.2 58 33.8
2005-10-17 10:13:58 51°22.032 2°37.578 60.2 13.3 57 32
2005-10-17 10:14:58 51°22.15 2°37.876 60 13.1 57 31.6
2005-10-17 10:15:58 51°22.266 2°38.172 60.9 13.2 59 32.2
2005-10-17 10:16:58 51°22.384 2°38.467 60.1 13.2 58 32.2
2005-10-17 10:17:58 51°22.502 2°38.763 59.9 13.2 57 31.3
2005-10-17 10:18:58 51°22.62 2°39.059 59.7 13.2 57 32.7
2005-10-17 10:19:58 51°22.739 2°39.356 59.6 13.2 57 32
2005-10-17 10:20:58 51°22.856 2°39.652 60.5 13.1 58 32.7
2005-10-17 10:21:58 51°22.975 2°39.95 60.7 13.3 58 32.1
2005-10-17 10:22:58 51°23.094 2°40.251 60.4 13.4 58 32.1
2005-10-17 10:23:58 51°23.212 2°40.551 60.5 13.4 59 31.9
2005-10-17 10:24:58 51°23.332 2°40.853 59.8 13.4 57 31.2
2005-10-17 10:25:58 51°23.451 2°41.154 60.2 13.5 59 30.4
2005-10-17 10:26:58 51°23.533 2°41.482 76.2 13.4 73 31.2
2005-10-17 10:27:58 51°23.608 2°41.82 69.6 13.5 67 29.1
2005-10-17 10:28:58 51°23.717 2°42.133 61.3 13.5 60 28.8
2005-10-17 10:29:58 51°23.824 2°42.45 64.3 13.6 63 28.5
2005-10-17 10:30:58 51°23.93 2°42.773 64.9 13.8 63 29.3
2005-10-17 10:31:58 51°24.037 2°43.096 64.8 13.7 61 24
2005-10-17 10:32:58 51°24.144 2°43.418 65.3 13.7 63 28.6
2005-10-17 10:33:58 51°24.251 2°43.739 64.7 13.7 62 26.7
2005-10-17 10:34:58 51°24.361 2°44.062 65.6 13.9 62 24
2005-10-17 10:35:58 51°24.471 2°44.388 65.4 13.9 62 28.2
2005-10-17 10:36:58 51°24.581 2°44.714 65.2 13.9 63 27.4
2005-10-17 10:37:58 51°24.691 2°45.039 64.9 13.9 61 25.7
2005-10-17 10:38:58 51°24.801 2°45.364 65.7 13.8 63 28.7
2005-10-17 10:39:58 51°24.91 2°45.689 65.7 13.8 63 26.3
2005-10-17 10:40:58 51°25.019 2°46.011 65.4 13.7 63 26.5
2005-10-17 10:41:58 51°25.129 2°46.332 64.7 13.7 61 26.9
2005-10-17 10:42:58 51°25.236 2°46.653 65.3 13.6 62 27.3
2005-10-17 10:43:58 51°25.342 2°46.974 65.8 13.7 62 27.9
2005-10-17 10:44:58 51°25.455 2°47.289 60.7 13.6 57 27.8
2005-10-17 10:45:58 51°25.58 2°47.592 60.2 13.6 56 27.8
2005-10-17 10:46:58 51°25.705 2°47.895 60.2 13.7 57 26
2005-10-17 10:47:58 51°25.847 2°48.182 51.4 13.8 48 25.9
2005-10-17 10:48:58 51°25.976 2°48.435 58.4 9.9 56 25.7
2005-10-17 10:49:58 51°26.028 2°48.587 69.7 3.4 61 26.3
2005-10-17 10:50:58 51°26.033 2°48.6 40.9 0.4 49 4.8
2005-10-17 10:51:58 51°26.036 2°48.61 26.3 0.4 41 4.9
2005-10-17 10:52:58 51°26.042 2°48.62 13.1 0.5 54 26.6
2005-10-17 10:53:58 51°26.047 2°48.629 3.5 0.5 42 26.4
2005-10-17 10:54:58 51°26.052 2°48.639 354.4 0.5 51 26.1
2005-10-17 10:55:58 51°26.057 2°48.648 346.2 0.5 55 25.7
2005-10-17 10:56:58 51°26.062 2°48.657 340.1 0.5 50 26.4
2005-10-17 10:57:58 51°26.094 2°48.665 2.6 3.9 13 26.4
2005-10-17 10:58:58 51°26.156 2°48.775 65.5 8.4 62 25.9
2005-10-17 10:59:58 51°26.226 2°49.085 81.4 13.7 78 26.3
2005-10-17 11:00:58 51°26.263 2°49.452 87 14 81 25.5
2005-10-17 11:01:58 51°26.297 2°49.825 86.3 14.1 83 25.8
2005-10-17 11:02:58 51°26.333 2°50.197 85.6 14.2 82 26.1
2005-10-17 11:03:58 51°26.37 2°50.569 85.3 14.1 81 26.1
2005-10-17 11:04:58 51°26.409 2°50.942 85.4 14.2 81 25.8
2005-10-17 11:05:58 51°26.447 2°51.316 86 14.3 80 29
2005-10-17 11:06:58 51°26.488 2°51.687 84.9 14.3 81 28.1
2005-10-17 11:07:58 51°26.53 2°52.06 86.2 14.2 82 28.2
2005-10-17 11:08:58 51°26.573 2°52.431 84.6 14.2 80 29.7
2005-10-17 11:09:58 51°26.616 2°52.806 86.3 14.4 80 30.9
2005-10-17 11:10:58 51°26.658 2°53.181 85.6 14.3 80 33
2005-10-17 11:11:58 51°26.7 2°53.554 85.6 14.2 80 32.9
2005-10-17 11:12:58 51°26.743 2°53.927 84.8 14.2 79 33.6
2005-10-17 11:13:58 51°26.802 2°54.293 79 14.4 73 28.4
2005-10-17 11:14:58 51°26.87 2°54.663 80.2 14.5 73 28.8
2005-10-17 11:15:58 51°26.934 2°55.031 80.7 14.3 75 28.9
2005-10-17 11:16:58 51°27.001 2°55.399 79.7 14.4 74 31
2005-10-17 11:17:58 51°27.067 2°55.764 80.3 14.2 73 32.8
2005-10-17 11:18:58 51°27.133 2°56.126 80.6 14.3 74 31.2
2005-10-17 11:19:58 51°27.191 2°56.501 82.3 14.3 76 27.1
2005-10-17 11:20:58 51°27.247 2°56.873 82 14.5 76 24.3
2005-10-17 11:21:58 51°27.305 2°57.242 82.3 14.3 76 27.9
2005-10-17 11:22:58 51°27.362 2°57.61 82.3 14.2 76 26.9
2005-10-17 11:23:58 51°27.419 2°57.976 81.8 14.2 76 24.2
2005-10-17 11:24:58 51°27.475 2°58.341 82 14.3 76 20.2
2005-10-17 11:25:58 51°27.532 2°58.711 82.1 14.3 75 20.1
2005-10-17 11:26:58 51°27.587 2°59.08 82.7 14.2 77 20.3
2005-10-17 11:27:58 51°27.643 2°59.447 82 14.2 76 22.3
2005-10-17 11:28:58 51°27.7 2°59.814 82.1 14.2 77 22.5
2005-10-17 11:29:58 51°27.758 3°0.186 82.5 14.5 75 22.5
2005-10-17 11:30:58 51°27.817 3°0.557 81.8 14.5 75 24.8
2005-10-17 11:31:58 51°27.877 3°0.928 82.7 14.4 75 25.4
2005-10-17 11:32:58 51°27.934 3°1.302 82.5 14.4 76 26.2
2005-10-17 11:33:58 51°27.994 3°1.674 82.3 14.4 76 26.6
2005-10-17 11:34:58 51°28.053 3°2.047 82.3 14.5 75 26.5
2005-10-17 11:35:58 51°28.11 3°2.422 81.9 14.5 76 26.5
2005-10-17 11:36:58 51°28.169 3°2.799 82.3 14.5 76 26
2005-10-17 11:37:58 51°28.226 3°3.175 82.6 14.5 76 25.5
2005-10-17 11:38:58 51°28.276 3°3.45 74.6 7.7 67 25.2
2005-10-17 11:39:59 51°28.302 3°3.523 49.6 0.4 87 -999
2005-10-17 11:40:58 51°28.304 3°3.539 29.3 0.8 77 4.9
2005-10-17 11:41:58 51°28.308 3°3.562 10.9 0.9 73 25.1
2005-10-17 11:42:58 51°28.315 3°3.585 355.3 1.1 68 25.2
2005-10-17 11:43:58 51°28.324 3°3.613 349 1.2 57 24.9
2005-10-17 11:44:58 51°28.339 3°3.638 347.1 1.9 22 24.9
2005-10-17 11:45:58 51°28.405 3°3.699 45.9 6.2 50 25.2
2005-10-17 11:46:58 51°28.4 3°3.93 113.3 12.1 106 24.4
2005-10-17 11:47:58 51°28.287 3°4.224 135 12.9 128 22.7
2005-10-17 11:48:58 51°28.161 3°4.517 134.2 13.2 125 20.6
2005-10-17 11:49:58 51°28.033 3°4.809 134.3 13.4 124 17.9
2005-10-17 11:50:58 51°27.907 3°5.101 132.8 13.4 121 16.2
2005-10-17 11:51:58 51°27.781 3°5.393 133.7 13.2 125 17.7
2005-10-17 11:52:58 51°27.657 3°5.686 133.2 13.3 125 17.3
2005-10-17 11:53:58 51°27.532 3°5.977 133.7 13.2 126 16.9
2005-10-17 11:54:58 51°27.406 3°6.264 134.5 13 125 16.5
2005-10-17 11:55:58 51°27.279 3°6.551 134.8 13.2 125 16
2005-10-17 11:56:58 51°27.154 3°6.837 133.8 13.2 123 15.5
2005-10-17 11:57:58 51°27.028 3°7.12 134.9 13.2 126 14.6
2005-10-17 11:58:58 51°26.903 3°7.403 133.8 12.9 127 13.9
2005-10-17 11:59:58 51°26.778 3°7.689 134.8 13 125 13.6
2005-10-17 12:00:58 51°26.653 3°7.974 134.3 13 125 13.4
2005-10-17 12:01:58 51°26.56 3°8.172 137.3 7.5 124 13.5
2005-10-17 12:02:58 51°26.518 3°8.327 115.7 5.3 99 13.6
2005-10-17 12:03:58 51°26.513 3°8.408 134.5 1.4 79 13.5
2005-10-17 12:04:58 51°26.526 3°8.426 165 0.9 43 13.6
2005-10-17 12:05:58 51°26.537 3°8.442 183.6 0.9 41 13.7
2005-10-17 12:06:58 51°26.547 3°8.456 192.3 0.8 53 13.7
2005-10-17 12:07:58 51°26.557 3°8.469 195.2 0.7 48 13.7
2005-10-17 12:08:58 51°26.553 3°8.474 211.2 1.5 191 13.7
2005-10-17 12:09:58 51°26.498 3°8.531 144.7 5.9 131 13.8
2005-10-17 12:10:58 51°26.381 3°8.737 136.6 12.5 126 13
2005-10-17 12:11:58 51°26.279 3°9.049 123.3 13.5 116 12.3
2005-10-17 12:12:58 51°26.18 3°9.369 124.8 13.5 117 11.9
2005-10-17 12:13:58 51°26.08 3°9.685 123.6 13.4 116 11.1
2005-10-17 12:14:58 51°25.977 3°9.998 125.4 13.5 116 10.6
2005-10-17 12:15:58 51°25.873 3°10.31 124.5 13.2 117 10.5
2005-10-17 12:16:58 51°25.767 3°10.62 124.8 13.2 118 10.3
2005-10-17 12:17:58 51°25.662 3°10.929 124.6 13.2 119 10.3
2005-10-17 12:18:58 51°25.564 3°11.249 122.2 13.4 115 11.4
2005-10-17 12:19:58 51°25.478 3°11.577 114.6 13.5 109 12.2
2005-10-17 12:20:58 51°25.433 3°11.928 97.1 13.6 91 12.6
2005-10-17 12:21:58 51°25.44 3°12.296 93.9 13.8 89 12.5
2005-10-17 12:22:58 51°25.445 3°12.665 93.9 13.9 88 12.4
2005-10-17 12:23:58 51°25.456 3°13.037 89.3 13.9 84 12.3
2005-10-17 12:24:58 51°25.479 3°13.407 89.5 13.9 85 12.2
2005-10-17 12:25:58 51°25.502 3°13.78 89.9 14.1 84 12.1
2005-10-17 12:26:58 51°25.538 3°14.151 82.2 14.1 78 11.6
2005-10-17 12:27:58 51°25.587 3°14.519 82.5 14 78 11.3
2005-10-17 12:28:58 51°25.628 3°14.89 85.1 14.2 80 10.9
2005-10-17 12:29:58 51°25.668 3°15.264 85.6 14.3 80 10.9
2005-10-17 12:30:58 51°25.706 3°15.639 86.5 14.3 81 10.8
2005-10-17 12:31:58 51°25.743 3°16.017 86.9 14.4 81 10.8
2005-10-17 12:32:58 51°25.779 3°16.396 86.3 14.3 81 10.9
2005-10-17 12:33:58 51°25.813 3°16.776 87.2 14.5 82 11.2
2005-10-17 12:34:58 51°25.84 3°17.157 87.7 14.6 83 11
2005-10-17 12:35:58 51°25.865 3°17.528 89.2 12.5 83 10.9
2005-10-17 12:36:58 51°25.874 3°17.747 101.2 5.4 87 11.4
2005-10-17 12:37:58 51°25.881 3°17.797 66.1 0.6 62 4.7
2005-10-17 12:38:58 51°25.885 3°17.812 42.8 0.6 74 11.3
2005-10-17 12:39:58 51°25.888 3°17.829 24.4 0.7 70 11.3
2005-10-17 12:40:58 51°25.893 3°17.849 8.6 1 68 11.3
2005-10-17 12:41:58 51°25.9 3°17.87 354.5 0.9 61 11.4
2005-10-17 12:42:58 51°25.908 3°17.891 347.6 0.9 53 11.2
2005-10-17 12:43:58 51°25.946 3°17.844 286.3 4.9 284 11.1
2005-10-17 12:44:58 51°25.88 3°17.673 232.6 10.3 229 11.1
2005-10-17 12:45:58 51°25.75 3°17.462 228.9 11.4 223 11.3
2005-10-17 12:46:58 51°25.595 3°17.277 220.7 11.6 216 11.9
2005-10-17 12:47:58 51°25.443 3°17.09 222.1 11.6 216 12.3
2005-10-17 12:48:58 51°25.288 3°16.909 221.8 11.6 217 13.3
2005-10-17 12:49:58 51°25.132 3°16.721 223.9 11.8 220 15.5
2005-10-17 12:50:58 51°24.974 3°16.527 221.3 11.9 217 16.8
2005-10-17 12:51:58 51°24.813 3°16.341 222 11.9 215 16.7
2005-10-17 12:52:58 51°24.663 3°16.147 228 11.4 220 20.6
2005-10-17 12:53:58 51°24.519 3°15.945 227.6 11.6 219 20.5
2005-10-17 12:54:58 51°24.37 3°15.74 228 11.8 221 17.9
2005-10-17 12:55:58 51°24.223 3°15.532 227.7 11.8 221 14.1
2005-10-17 12:56:58 51°24.075 3°15.327 227.2 11.8 220 14.5
2005-10-17 12:57:58 51°23.928 3°15.123 227.7 11.8 222 14.7
2005-10-17 12:58:58 51°23.78 3°14.923 225.7 11.6 219 14.4
2005-10-17 12:59:58 51°23.636 3°14.727 227.1 11.4 221 14.2
2005-10-17 13:00:58 51°23.492 3°14.527 226.5 11.6 221 13.7
2005-10-17 13:01:58 51°23.346 3°14.328 227.9 11.5 222 12.8
2005-10-17 13:02:58 51°23.202 3°14.122 229 11.5 223 12.8
2005-10-17 13:03:58 51°23.056 3°13.922 227.1 11.4 219 12.8
2005-10-17 13:04:58 51°22.908 3°13.72 226.4 11.7 221 13.2
2005-10-17 13:05:58 51°22.769 3°13.505 239.2 11.5 233 13.7
2005-10-17 13:06:58 51°22.656 3°13.284 234.4 8.1 224 14.4
2005-10-17 13:07:58 51°22.602 3°13.208 245.3 1.5 229 14.9
2005-10-17 13:08:58 51°22.6 3°13.203 263 0.3 297 14.8
2005-10-17 13:09:58 51°22.6 3°13.197 260.5 0.3 281 14.9
2005-10-17 13:10:58 51°22.599 3°13.192 251.7 0.2 228 14.9
2005-10-17 13:11:58 51°22.594 3°13.19 241.6 0.3 195 14.8
2005-10-17 13:12:58 51°22.576 3°13.173 232.7 3.3 223 14.9
2005-10-17 13:13:58 51°22.527 3°12.96 264.8 11 265 15.4
2005-10-17 13:14:58 51°22.519 3°12.659 271.3 11.4 269 16
2005-10-17 13:15:58 51°22.516 3°12.357 270.5 11.3 269 16.4
2005-10-17 13:16:58 51°22.51 3°12.055 267.4 11.3 264 16.7
2005-10-17 13:17:58 51°22.491 3°11.756 264.5 11.2 262 17.5
2005-10-17 13:18:58 51°22.468 3°11.455 263.6 11.5 264 17.7
2005-10-17 13:19:57 51°11.072 2°56.428 126.4 -999 -999 -999
2005-10-17 13:20:37 51°11.072 2°56.428 126.4 -999 -999 -999
2005-10-17 13:21:23 51°22.404 3°10.728 261.2 11.4 261 19
2005-10-17 13:22:23 51°22.378 3°10.428 262.4 11.4 262 20.4
2005-10-17 13:23:23 51°22.354 3°10.126 264.1 11.5 264 16.2
2005-10-17 13:24:23 51°22.33 3°9.824 262.5 11.4 261 15.9
2005-10-17 13:25:24 51°22.299 3°9.519 262.7 11.3 262 15.3
2005-10-17 13:26:23 51°22.266 3°9.224 260 11.5 258 15
2005-10-17 13:27:23 51°22.232 3°8.919 261.1 11.7 260 14.7
2005-10-17 13:28:24 51°22.199 3°8.606 261.6 11.7 260 14.6
2005-10-17 13:29:23 51°22.162 3°8.306 259.4 11.6 258 14.4
2005-10-17 13:30:23 51°22.128 3°8.001 260.6 11.7 259 14.2
2005-10-17 13:31:23 51°22.069 3°7.705 253.8 11.6 253 14.3
2005-10-17 13:32:23 51°22.008 3°7.411 253.7 11.6 250 14.1
2005-10-17 13:33:23 51°21.945 3°7.118 253.6 11.7 250 13.9
2005-10-17 13:34:23 51°21.882 3°6.822 251.8 11.8 250 13.7
2005-10-17 13:35:23 51°21.821 3°6.526 253 11.7 252 13.5
2005-10-17 13:36:23 51°21.76 3°6.231 253.2 11.6 254 13.3
2005-10-17 13:37:23 51°21.699 3°5.937 252.6 11.8 251 13.2
2005-10-17 13:38:23 51°21.639 3°5.637 254 11.9 252 13.2
2005-10-17 13:39:23 51°21.578 3°5.335 254.2 11.9 253 13.1
2005-10-17 13:40:23 51°21.519 3°5.031 252.5 12 250 13
2005-10-17 13:41:23 51°21.458 3°4.728 253.8 12 253 12.9
2005-10-17 13:42:23 51°21.393 3°4.428 253.3 12 249 12.8
2005-10-17 13:43:24 51°21.329 3°4.12 253.8 11.9 251 12.8
2005-10-17 13:44:24 51°21.267 3°3.819 254 11.9 250 12.7
2005-10-17 13:45:23 51°21.207 3°3.525 252.5 11.8 253 12.7
2005-10-17 13:46:23 51°21.146 3°3.225 252.5 11.9 251 12.7
2005-10-17 13:47:23 51°21.084 3°2.924 253.5 11.9 251 12.5
2005-10-17 13:48:24 51°21.023 3°2.619 254.4 11.9 253 12.6
2005-10-17 13:49:23 51°20.966 3°2.323 253.4 11.9 251 12.5
2005-10-17 13:50:24 51°20.908 3°2.02 252.6 11.8 253 12.4
2005-10-17 13:51:23 51°20.851 3°1.726 253.8 11.7 252 12.4
2005-10-17 13:52:23 51°20.794 3°1.427 253.2 11.7 254 12.3
2005-10-17 13:53:23 51°20.73 3°1.129 251.1 11.8 251 12.4
2005-10-17 13:54:23 51°20.661 3°0.83 249.5 12.1 250 12.4
2005-10-17 13:55:23 51°20.594 3°0.531 251.1 12.1 255 12.4
2005-10-17 13:56:23 51°20.527 3°0.232 252.3 12 253 12.5
2005-10-17 13:57:23 51°20.462 2°59.934 252.3 11.7 249 12.5
2005-10-17 13:58:23 51°20.397 2°59.64 251.8 11.6 252 12.6
2005-10-17 13:59:23 51°20.333 2°59.345 251.1 11.8 252 12.5
2005-10-17 14:00:23 51°20.271 2°59.048 250.4 11.8 254 12.6
2005-10-17 14:01:23 51°20.207 2°58.752 253.2 11.7 250 12.9
2005-10-17 14:02:23 51°20.143 2°58.455 251.4 11.9 250 12.7
2005-10-17 14:03:23 51°20.08 2°58.156 251.8 12 251 12.9
2005-10-17 14:04:23 51°20.016 2°57.859 252.2 11.7 249 12.8
2005-10-17 14:05:23 51°19.954 2°57.556 252 12 252 13
2005-10-17 14:06:23 51°19.889 2°57.257 250 11.9 250 12.9
2005-10-17 14:07:23 51°19.824 2°56.957 251.2 12 251 12.9
2005-10-17 14:08:23 51°19.759 2°56.658 252.2 11.8 253 13
2005-10-17 14:09:23 51°19.693 2°56.359 251.8 12.1 251 13.1
2005-10-17 14:10:23 51°19.629 2°56.058 251.9 11.9 251 13.1
2005-10-17 14:11:23 51°19.561 2°55.76 250.4 12.1 252 13.2
2005-10-17 14:12:23 51°19.494 2°55.456 251.2 12.2 250 13.5
2005-10-17 14:13:23 51°19.428 2°55.152 251.4 12.1 253 13.6
2005-10-17 14:14:24 51°19.361 2°54.844 249.8 12.2 246 13.7
2005-10-17 14:15:23 51°19.296 2°54.546 251.2 12.1 252 13.7
2005-10-17 14:16:23 51°19.221 2°54.248 246.9 12.1 245 13.7
2005-10-17 14:17:23 51°19.149 2°53.948 249.5 12 249 13.6
2005-10-17 14:18:23 51°19.08 2°53.646 251.7 12.2 250 13.6
2005-10-17 14:19:23 51°19.014 2°53.338 250.9 12.4 253 13.5
2005-10-17 14:20:24 51°18.947 2°53.026 252.1 12.2 251 13.6
2005-10-17 14:21:23 51°18.883 2°52.726 251.3 12.2 252 13.8
2005-10-17 14:22:23 51°18.816 2°52.42 250.9 12.1 254 14
2005-10-17 14:23:23 51°18.747 2°52.114 251.1 12.2 249 14.4
2005-10-17 14:24:23 51°18.681 2°51.809 251.5 12.2 251 14.8
2005-10-17 14:25:23 51°18.612 2°51.503 251.3 12.3 250 15.1
2005-10-17 14:26:23 51°18.552 2°51.225 250.5 8.7 251 15.4
2005-10-17 14:27:23 51°18.52 2°51.067 250.8 5 252 15.5
2005-10-17 14:28:23 51°18.51 2°50.995 261.8 0.3 321 15.5
2005-10-17 14:29:23 51°18.518 2°50.985 277.4 0.7 327 15.6
2005-10-17 14:30:23 51°18.528 2°50.973 289.9 0.8 324 15.7
2005-10-17 14:31:23 51°18.54 2°50.958 301.1 0.9 319 15.5
2005-10-17 14:32:23 51°18.558 2°50.934 312.2 2.8 314 15.7
2005-10-17 14:33:23 51°18.57 2°50.846 246 3.6 245 15.8
2005-10-17 14:34:23 51°18.486 2°50.792 201.2 9.3 200 15.4
2005-10-17 14:35:23 51°18.305 2°50.684 204.8 11.9 200 15
2005-10-17 14:36:23 51°18.112 2°50.574 201.9 12 197 14.5
2005-10-17 14:37:23 51°17.919 2°50.478 198.8 11.8 195 14.1
2005-10-17 14:38:23 51°17.725 2°50.389 199.2 12 196 13.8
2005-10-17 14:39:23 51°17.531 2°50.302 199.7 11.9 197 13
2005-10-17 14:40:23 51°17.34 2°50.213 199.8 11.6 196 12.3
2005-10-17 14:41:23 51°17.149 2°50.131 198.8 12 195 11.2
2005-10-17 14:42:23 51°16.962 2°50.046 197.7 11.7 195 10.2
2005-10-17 14:43:24 51°16.778 2°49.947 205.4 10.4 201 14.1
2005-10-17 14:44:23 51°16.681 2°49.855 217.2 4.9 214 15.4
2005-10-17 14:45:23 51°16.648 2°49.807 221.5 1 219 17.3
2005-10-17 14:46:23 51°16.648 2°49.802 208.1 0.6 21 16.9
2005-10-17 14:47:23 51°16.652 2°49.805 191 0.1 12 16.3
2005-10-17 14:48:23 51°16.653 2°49.809 180.4 0.2 82 16.9
2005-10-17 14:49:23 51°16.659 2°49.811 176.9 1.4 357 15.5
2005-10-17 14:50:23 51°16.651 2°49.803 209.6 1.3 211 15.3
2005-10-17 14:51:23 51°16.636 2°49.793 201.7 0.8 195 16.1
2005-10-17 14:52:24 51°16.666 2°49.807 207.1 3.3 20 -999
2005-10-17 14:53:23 51°16.704 2°49.835 221.7 1.3 29 14.9
2005-10-17 14:54:24 51°16.663 2°49.849 169 5.3 161 16.5
2005-10-17 14:55:23 51°16.513 2°49.989 148.1 12.1 142 12.3
2005-10-17 14:56:23 51°16.378 2°50.233 128.2 12.2 121 11.8
2005-10-17 14:57:23 51°16.322 2°50.554 105.2 12.8 101 9.9
2005-10-17 14:58:23 51°16.291 2°50.894 104.5 13.1 98 12
2005-10-17 14:59:23 51°16.28 2°51.237 97.4 12.9 92 11.3
2005-10-17 15:00:23 51°16.274 2°51.58 98.2 13 92 12.5
2005-10-17 15:01:23 51°16.266 2°51.922 98.1 13 93 13
2005-10-17 15:02:23 51°16.255 2°52.263 98.7 12.9 94 13.1
2005-10-17 15:03:23 51°16.243 2°52.606 98.7 13 93 13.1
2005-10-17 15:04:23 51°16.231 2°52.95 98.6 12.9 91 12.9
2005-10-17 15:05:23 51°16.201 2°53.29 107.6 13.1 100 12.7
2005-10-17 15:06:23 51°16.159 2°53.625 106.8 12.9 102 12.5
2005-10-17 15:07:23 51°16.186 2°53.953 74 12 67 12.2
2005-10-17 15:08:23 51°16.219 2°54.201 91.2 7.4 81 12.2
2005-10-17 15:09:23 51°16.254 2°54.303 49.1 2.2 35 12.2
2005-10-17 15:10:24 51°16.259 2°54.303 3.8 0.2 347 -999
2005-10-17 15:11:23 51°16.262 2°54.299 347.9 0.3 309 12.2
2005-10-17 15:12:23 51°16.265 2°54.295 339.9 0.3 325 12.2
2005-10-17 15:13:23 51°16.269 2°54.288 335.6 0.4 303 12.1
2005-10-17 15:14:23 51°16.274 2°54.28 335.8 0.5 318 12.1
2005-10-17 15:15:23 51°16.297 2°54.218 287.8 5 288 12
2005-10-17 15:16:23 51°16.221 2°54.104 195 8.5 190 12.1
2005-10-17 15:17:23 51°16.028 2°54.117 177.8 12.7 177 11.7
2005-10-17 15:18:24 51°15.814 2°54.136 177.9 12.7 174 11.4
2005-10-17 15:19:23 51°15.607 2°54.147 180 12.9 180 10.6
2005-10-17 15:20:23 51°15.398 2°54.159 179.4 12.6 177 9.9
2005-10-17 15:21:23 51°15.19 2°54.183 178 12.9 177 9.2
2005-10-17 15:22:23 51°15.006 2°54.311 153.3 12.3 149 9
2005-10-17 15:23:23 51°14.83 2°54.478 149.8 12.2 147 9.6
2005-10-17 15:24:23 51°14.66 2°54.665 146.6 12.3 143 10
2005-10-17 15:25:23 51°14.493 2°54.849 145.5 12.1 144 10.4
2005-10-17 15:26:23 51°14.36 2°55.074 129.7 11.8 127 11
2005-10-17 15:27:23 51°14.232 2°55.299 140.4 10.9 139 10.7
2005-10-17 15:28:23 51°14.094 2°55.424 157.1 8.7 155 10.6
2005-10-17 15:29:23 51°13.963 2°55.52 158.6 8.6 156 9.9
2005-10-17 15:30:23 51°13.835 2°55.619 154.6 8.6 151 10
2005-10-17 15:31:23 51°13.732 2°55.741 137.1 6.5 133 10.5
2005-10-17 15:32:23 51°13.672 2°55.864 128 5.1 125 9.5
2005-10-17 15:33:23 51°13.631 2°55.971 122.8 4.3 120 9.7
2005-10-17 15:34:23 51°13.612 2°56.054 110.2 2.6 108 9.7
2005-10-17 15:35:23 51°13.602 2°56.098 119 0.6 123 6.5